sensor_id;sensor_type;location;lat;lon;timestamp;temperature;humidity
4635;DHT22;2330;48.158;11.816;2023-04-01T00:01:26;7.90;98.50
4635;DHT22;2330;48.158;11.816;2023-04-01T00:03:53;7.80;98.50
4635;DHT22;2330;48.158;11.816;2023-04-01T00:06:21;7.80;98.50
4635;DHT22;2330;48.158;11.816;2023-04-01T00:08:48;7.80;98.50
4635;DHT22;2330;48.158;11.816;2023-04-01T00:11:15;7.80;98.50
4635;DHT22;2330;48.158;11.816;2023-04-01T00:13:42;7.70;98.50
4635;DHT22;2330;48.158;11.816;2023-04-01T00:16:09;7.70;98.50
4635;DHT22;2330;48.158;11.816;2023-04-01T00:18:48;7.60;98.50
4635;DHT22;2330;48.158;11.816;2023-04-01T00:21:15;7.50;98.50
4635;DHT22;2330;48.158;11.816;2023-04-01T00:23:43;7.50;98.50
4635;DHT22;2330;48.158;11.816;2023-04-01T00:26:10;7.50;98.50
4635;DHT22;2330;48.158;11.816;2023-04-01T00:28:38;7.40;98.50
4635;DHT22;2330;48.158;11.816;2023-04-01T00:31:09;7.40;98.50
4635;DHT22;2330;48.158;11.816;2023-04-01T00:33:37;7.50;98.50
4635;DHT22;2330;48.158;11.816;2023-04-01T00:36:16;7.40;98.50
4635;DHT22;2330;48.158;11.816;2023-04-01T00:38:43;7.40;98.50
4635;DHT22;2330;48.158;11.816;2023-04-01T00:41:12;7.40;98.50
4635;DHT22;2330;48.158;11.816;2023-04-01T00:43:42;7.40;98.50
4635;DHT22;2330;48.158;11.816;2023-04-01T00:46:08;7.40;98.50
4635;DHT22;2330;48.158;11.816;2023-04-01T00:48:38;7.30;98.50
4635;DHT22;2330;48.158;11.816;2023-04-01T00:51:10;7.30;98.50
4635;DHT22;2330;48.158;11.816;2023-04-01T00:53:41;7.30;98.50
4635;DHT22;2330;48.158;11.816;2023-04-01T00:56:26;7.20;98.50
4635;DHT22;2330;48.158;11.816;2023-04-01T00:59:22;7.20;98.50
4635;DHT22;2330;48.158;11.816;2023-04-01T01:01:47;7.20;98.50
4635;DHT22;2330;48.158;11.816;2023-04-01T01:04:31;7.30;98.50
4635;DHT22;2330;48.158;11.816;2023-04-01T01:07:17;7.30;98.50
4635;DHT22;2330;48.158;11.816;2023-04-01T01:10:18;7.30;98.50
4635;DHT22;2330;48.158;11.816;2023-04-01T01:13:10;7.30;98.50
4635;DHT22;2330;48.158;11.816;2023-04-01T01:27:08;7.30;98.50
4635;DHT22;2330;48.158;11.816;2023-04-01T01:29:52;7.30;98.50
4635;DHT22;2330;48.158;11.816;2023-04-01T01:32:43;7.30;98.50
4635;DHT22;2330;48.158;11.816;2023-04-01T01:37:49;7.30;98.50
4635;DHT22;2330;48.158;11.816;2023-04-01T01:40:18;7.40;98.50
4635;DHT22;2330;48.158;11.816;2023-04-01T01:42:51;7.40;98.50
4635;DHT22;2330;48.158;11.816;2023-04-01T01:45:21;7.50;98.50
4635;DHT22;2330;48.158;11.816;2023-04-01T01:47:50;7.50;98.50
4635;DHT22;2330;48.158;11.816;2023-04-01T01:50:19;7.50;98.50
4635;DHT22;2330;48.158;11.816;2023-04-01T01:52:46;7.50;98.50
4635;DHT22;2330;48.158;11.816;2023-04-01T01:57:51;7.50;98.50
4635;DHT22;2330;48.158;11.816;2023-04-01T02:00:19;7.50;98.50
4635;DHT22;2330;48.158;11.816;2023-04-01T02:02:48;7.50;98.50
4635;DHT22;2330;48.158;11.816;2023-04-01T02:05:18;7.50;98.50
4635;DHT22;2330;48.158;11.816;2023-04-01T02:07:54;7.50;98.50
4635;DHT22;2330;48.158;11.816;2023-04-01T02:10:23;7.50;98.50
4635;DHT22;2330;48.158;11.816;2023-04-01T02:12:54;7.60;98.50
4635;DHT22;2330;48.158;11.816;2023-04-01T02:15:24;7.60;98.50
4635;DHT22;2330;48.158;11.816;2023-04-01T02:17:54;7.60;98.50
4635;DHT22;2330;48.158;11.816;2023-04-01T02:20:23;7.60;98.50
4635;DHT22;2330;48.158;11.816;2023-04-01T02:22:53;7.50;98.50
4635;DHT22;2330;48.158;11.816;2023-04-01T02:25:25;7.60;98.50
4635;DHT22;2330;48.158;11.816;2023-04-01T02:27:53;7.60;98.50
4635;DHT22;2330;48.158;11.816;2023-04-01T02:30:21;7.60;98.50
4635;DHT22;2330;48.158;11.816;2023-04-01T02:32:49;7.70;98.50
4635;DHT22;2330;48.158;11.816;2023-04-01T02:35:17;7.60;98.50
4635;DHT22;2330;48.158;11.816;2023-04-01T02:37:45;7.60;98.50
4635;DHT22;2330;48.158;11.816;2023-04-01T02:40:15;7.60;98.50
4635;DHT22;2330;48.158;11.816;2023-04-01T02:42:42;7.50;98.50
4635;DHT22;2330;48.158;11.816;2023-04-01T02:45:09;7.50;98.50
4635;DHT22;2330;48.158;11.816;2023-04-01T02:47:36;7.50;98.50
4635;DHT22;2330;48.158;11.816;2023-04-01T02:50:04;7.50;98.50
4635;DHT22;2330;48.158;11.816;2023-04-01T02:52:31;7.50;98.50
4635;DHT22;2330;48.158;11.816;2023-04-01T02:54:58;7.50;98.50
4635;DHT22;2330;48.158;11.816;2023-04-01T02:57:25;7.50;98.50
4635;DHT22;2330;48.158;11.816;2023-04-01T02:59:52;7.50;98.50
4635;DHT22;2330;48.158;11.816;2023-04-01T03:02:18;7.50;98.50
4635;DHT22;2330;48.158;11.816;2023-04-01T03:04:45;7.50;98.50
4635;DHT22;2330;48.158;11.816;2023-04-01T03:07:12;7.50;98.50
4635;DHT22;2330;48.158;11.816;2023-04-01T03:09:39;7.50;98.50
4635;DHT22;2330;48.158;11.816;2023-04-01T03:12:06;7.50;98.50
4635;DHT22;2330;48.158;11.816;2023-04-01T03:14:33;7.50;98.50
4635;DHT22;2330;48.158;11.816;2023-04-01T03:17:00;7.50;98.50
4635;DHT22;2330;48.158;11.816;2023-04-01T03:19:27;7.50;98.50
4635;DHT22;2330;48.158;11.816;2023-04-01T03:21:54;7.50;98.50
4635;DHT22;2330;48.158;11.816;2023-04-01T03:24:20;7.50;98.50
4635;DHT22;2330;48.158;11.816;2023-04-01T03:26:47;7.40;98.50
4635;DHT22;2330;48.158;11.816;2023-04-01T03:29:14;7.50;98.50
4635;DHT22;2330;48.158;11.816;2023-04-01T03:31:42;7.50;98.50
4635;DHT22;2330;48.158;11.816;2023-04-01T03:34:09;7.50;98.50
4635;DHT22;2330;48.158;11.816;2023-04-01T03:36:36;7.50;98.50
4635;DHT22;2330;48.158;11.816;2023-04-01T03:39:03;7.50;98.50
4635;DHT22;2330;48.158;11.816;2023-04-01T03:41:32;7.50;98.50
4635;DHT22;2330;48.158;11.816;2023-04-01T03:43:59;7.50;98.50
4635;DHT22;2330;48.158;11.816;2023-04-01T03:46:26;7.40;98.50
4635;DHT22;2330;48.158;11.816;2023-04-01T03:48:53;7.40;98.50
4635;DHT22;2330;48.158;11.816;2023-04-01T03:51:19;7.30;98.50
4635;DHT22;2330;48.158;11.816;2023-04-01T03:53:46;7.30;98.50
4635;DHT22;2330;48.158;11.816;2023-04-01T03:56:13;7.20;98.50
4635;DHT22;2330;48.158;11.816;2023-04-01T03:58:40;7.10;98.50
4635;DHT22;2330;48.158;11.816;2023-04-01T04:01:21;7.10;98.50
4635;DHT22;2330;48.158;11.816;2023-04-01T04:03:49;7.20;98.50
4635;DHT22;2330;48.158;11.816;2023-04-01T04:06:18;7.20;98.50
4635;DHT22;2330;48.158;11.816;2023-04-01T04:08:45;7.20;98.50
4635;DHT22;2330;48.158;11.816;2023-04-01T04:11:11;7.30;98.50
4635;DHT22;2330;48.158;11.816;2023-04-01T04:13:38;7.30;98.50
4635;DHT22;2330;48.158;11.816;2023-04-01T04:16:06;7.30;98.50
4635;DHT22;2330;48.158;11.816;2023-04-01T04:18:33;7.30;98.50
4635;DHT22;2330;48.158;11.816;2023-04-01T04:21:00;7.20;98.50
4635;DHT22;2330;48.158;11.816;2023-04-01T04:23:26;7.20;98.50
4635;DHT22;2330;48.158;11.816;2023-04-01T04:25:57;7.20;98.50
4635;DHT22;2330;48.158;11.816;2023-04-01T04:28:25;7.10;98.50
4635;DHT22;2330;48.158;11.816;2023-04-01T04:30:53;7.00;98.50
4635;DHT22;2330;48.158;11.816;2023-04-01T04:33:21;7.00;98.50
4635;DHT22;2330;48.158;11.816;2023-04-01T04:35:48;6.90;98.50
4635;DHT22;2330;48.158;11.816;2023-04-01T04:38:15;6.90;98.50
4635;DHT22;2330;48.158;11.816;2023-04-01T04:40:43;7.00;98.50
4635;DHT22;2330;48.158;11.816;2023-04-01T04:43:14;7.00;98.50
4635;DHT22;2330;48.158;11.816;2023-04-01T04:45:41;7.00;98.50
4635;DHT22;2330;48.158;11.816;2023-04-01T04:48:12;7.00;98.50
4635;DHT22;2330;48.158;11.816;2023-04-01T04:50:46;7.00;98.50
4635;DHT22;2330;48.158;11.816;2023-04-01T04:53:14;7.00;98.50
4635;DHT22;2330;48.158;11.816;2023-04-01T04:55:46;7.00;98.50
4635;DHT22;2330;48.158;11.816;2023-04-01T04:58:13;7.00;98.50
4635;DHT22;2330;48.158;11.816;2023-04-01T05:00:40;7.00;98.50
4635;DHT22;2330;48.158;11.816;2023-04-01T05:03:07;7.10;98.50
4635;DHT22;2330;48.158;11.816;2023-04-01T05:05:35;7.10;98.50
4635;DHT22;2330;48.158;11.816;2023-04-01T05:08:01;7.10;98.50
4635;DHT22;2330;48.158;11.816;2023-04-01T05:10:28;7.20;98.50
4635;DHT22;2330;48.158;11.816;2023-04-01T05:12:55;7.20;98.50
4635;DHT22;2330;48.158;11.816;2023-04-01T05:15:22;7.20;98.50
4635;DHT22;2330;48.158;11.816;2023-04-01T05:17:49;7.20;98.50
4635;DHT22;2330;48.158;11.816;2023-04-01T05:20:16;7.20;98.50
4635;DHT22;2330;48.158;11.816;2023-04-01T05:22:43;7.20;98.50
4635;DHT22;2330;48.158;11.816;2023-04-01T05:25:10;7.30;98.50
4635;DHT22;2330;48.158;11.816;2023-04-01T05:27:36;7.30;98.50
4635;DHT22;2330;48.158;11.816;2023-04-01T05:30:04;7.30;98.50
4635;DHT22;2330;48.158;11.816;2023-04-01T05:32:32;7.40;98.50
4635;DHT22;2330;48.158;11.816;2023-04-01T05:34:58;7.40;98.50
4635;DHT22;2330;48.158;11.816;2023-04-01T05:37:25;7.50;98.50
4635;DHT22;2330;48.158;11.816;2023-04-01T05:39:52;7.50;98.50
4635;DHT22;2330;48.158;11.816;2023-04-01T05:42:19;7.50;98.50
4635;DHT22;2330;48.158;11.816;2023-04-01T05:44:46;7.60;98.50
4635;DHT22;2330;48.158;11.816;2023-04-01T05:47:12;7.60;98.50
4635;DHT22;2330;48.158;11.816;2023-04-01T05:49:39;7.70;98.50
4635;DHT22;2330;48.158;11.816;2023-04-01T05:52:06;7.70;98.50
4635;DHT22;2330;48.158;11.816;2023-04-01T05:54:33;7.70;98.50
4635;DHT22;2330;48.158;11.816;2023-04-01T05:57:00;7.80;98.50
4635;DHT22;2330;48.158;11.816;2023-04-01T05:59:27;7.80;98.50
4635;DHT22;2330;48.158;11.816;2023-04-01T06:01:54;7.90;98.50
4635;DHT22;2330;48.158;11.816;2023-04-01T06:04:21;8.00;98.50
4635;DHT22;2330;48.158;11.816;2023-04-01T06:06:48;8.00;98.50
4635;DHT22;2330;48.158;11.816;2023-04-01T06:09:27;8.00;98.50
4635;DHT22;2330;48.158;11.816;2023-04-01T06:14:42;8.20;98.50
4635;DHT22;2330;48.158;11.816;2023-04-01T06:20:25;8.20;98.50
4635;DHT22;2330;48.158;11.816;2023-04-01T06:28:58;8.40;98.50
4635;DHT22;2330;48.158;11.816;2023-04-01T06:37:10;8.80;98.50
4635;DHT22;2330;48.158;11.816;2023-04-01T06:45:32;9.10;98.50
4635;DHT22;2330;48.158;11.816;2023-04-01T06:48:39;9.10;98.50
4635;DHT22;2330;48.158;11.816;2023-04-01T06:56:18;9.40;98.50
4635;DHT22;2330;48.158;11.816;2023-04-01T06:59:01;9.50;98.50
4635;DHT22;2330;48.158;11.816;2023-04-01T07:01:40;9.60;98.50
4635;DHT22;2330;48.158;11.816;2023-04-01T07:04:13;9.70;98.50
4635;DHT22;2330;48.158;11.816;2023-04-01T07:07:02;9.60;98.50
4635;DHT22;2330;48.158;11.816;2023-04-01T07:09:38;9.50;98.50
4635;DHT22;2330;48.158;11.816;2023-04-01T07:12:40;9.40;98.50
4635;DHT22;2330;48.158;11.816;2023-04-01T07:15:20;9.40;98.50
4635;DHT22;2330;48.158;11.816;2023-04-01T07:17:55;9.40;98.50
4635;DHT22;2330;48.158;11.816;2023-04-01T07:20:30;9.40;98.50
4635;DHT22;2330;48.158;11.816;2023-04-01T07:23:00;9.50;98.50
4635;DHT22;2330;48.158;11.816;2023-04-01T07:25:35;9.70;98.50
4635;DHT22;2330;48.158;11.816;2023-04-01T07:28:06;9.60;98.50
4635;DHT22;2330;48.158;11.816;2023-04-01T07:36:52;9.30;98.50
4635;DHT22;2330;48.158;11.816;2023-04-01T07:42:37;9.30;98.50
4635;DHT22;2330;48.158;11.816;2023-04-01T07:48:26;9.50;98.50
4635;DHT22;2330;48.158;11.816;2023-04-01T07:54:04;9.80;98.50
4635;DHT22;2330;48.158;11.816;2023-04-01T07:56:49;10.00;97.70
4635;DHT22;2330;48.158;11.816;2023-04-01T08:10:13;10.00;97.40
4635;DHT22;2330;48.158;11.816;2023-04-01T08:21:51;9.90;97.30
4635;DHT22;2330;48.158;11.816;2023-04-01T08:23:58;9.80;97.70
4635;DHT22;2330;48.158;11.816;2023-04-01T08:26:42;9.80;98.50
4635;DHT22;2330;48.158;11.816;2023-04-01T08:32:06;9.90;96.50
4635;DHT22;2330;48.158;11.816;2023-04-01T08:34:42;10.10;96.40
4635;DHT22;2330;48.158;11.816;2023-04-01T08:37:28;10.20;96.80
4635;DHT22;2330;48.158;11.816;2023-04-01T08:40:00;10.30;95.90
4635;DHT22;2330;48.158;11.816;2023-04-01T08:45:40;10.50;96.80
4635;DHT22;2330;48.158;11.816;2023-04-01T08:56:26;11.20;94.60
4635;DHT22;2330;48.158;11.816;2023-04-01T08:59:13;11.30;94.10
4635;DHT22;2330;48.158;11.816;2023-04-01T09:02:23;11.30;94.70
4635;DHT22;2330;48.158;11.816;2023-04-01T09:08:03;11.40;92.40
4635;DHT22;2330;48.158;11.816;2023-04-01T09:10:45;11.20;94.50
4635;DHT22;2330;48.158;11.816;2023-04-01T09:16:27;11.40;93.60
4635;DHT22;2330;48.158;11.816;2023-04-01T09:33:56;11.90;90.60
4635;DHT22;2330;48.158;11.816;2023-04-01T09:36:43;12.30;90.90
4635;DHT22;2330;48.158;11.816;2023-04-01T09:39:22;12.80;89.90
4635;DHT22;2330;48.158;11.816;2023-04-01T09:45:17;12.10;91.30
4635;DHT22;2330;48.158;11.816;2023-04-01T09:56:23;12.30;91.30
4635;DHT22;2330;48.158;11.816;2023-04-01T10:33:45;11.80;90.60
4635;DHT22;2330;48.158;11.816;2023-04-01T10:51:25;11.80;90.50
4635;DHT22;2330;48.158;11.816;2023-04-01T10:54:35;11.90;90.60
4635;DHT22;2330;48.158;11.816;2023-04-01T11:11:33;12.00;90.90
4635;DHT22;2330;48.158;11.816;2023-04-01T11:19:46;11.60;91.20
4635;DHT22;2330;48.158;11.816;2023-04-01T11:33:57;11.10;98.30
4635;DHT22;2330;48.158;11.816;2023-04-01T11:41:36;10.90;98.50
4635;DHT22;2330;48.158;11.816;2023-04-01T11:44:21;10.80;98.50
4635;DHT22;2330;48.158;11.816;2023-04-01T11:52:34;10.70;98.50
4635;DHT22;2330;48.158;11.816;2023-04-01T11:58:04;10.60;98.50
4635;DHT22;2330;48.158;11.816;2023-04-01T12:00:59;10.60;98.50
4635;DHT22;2330;48.158;11.816;2023-04-01T12:09:25;9.90;98.50
4635;DHT22;2330;48.158;11.816;2023-04-01T12:12:18;9.80;98.50
4635;DHT22;2330;48.158;11.816;2023-04-01T12:20:22;9.40;98.50
4635;DHT22;2330;48.158;11.816;2023-04-01T12:22:58;9.10;98.50
4635;DHT22;2330;48.158;11.816;2023-04-01T12:26:01;8.90;98.50
4635;DHT22;2330;48.158;11.816;2023-04-01T12:29:07;8.80;98.50
4635;DHT22;2330;48.158;11.816;2023-04-01T12:34:28;8.80;98.50
4635;DHT22;2330;48.158;11.816;2023-04-01T12:40:17;8.70;98.50
4635;DHT22;2330;48.158;11.816;2023-04-01T12:43:19;8.70;98.50
4635;DHT22;2330;48.158;11.816;2023-04-01T12:54:14;8.60;98.50
4635;DHT22;2330;48.158;11.816;2023-04-01T13:00:12;8.70;98.50
4635;DHT22;2330;48.158;11.816;2023-04-01T13:08:34;8.60;98.50
4635;DHT22;2330;48.158;11.816;2023-04-01T13:14:04;8.50;98.50
4635;DHT22;2330;48.158;11.816;2023-04-01T13:17:06;8.40;98.50
4635;DHT22;2330;48.158;11.816;2023-04-01T13:19:38;8.40;98.50
4635;DHT22;2330;48.158;11.816;2023-04-01T13:22:24;8.40;98.50
4635;DHT22;2330;48.158;11.816;2023-04-01T13:24:58;8.40;98.50
4635;DHT22;2330;48.158;11.816;2023-04-01T13:27:49;8.40;98.50
4635;DHT22;2330;48.158;11.816;2023-04-01T13:30:28;8.40;98.50
4635;DHT22;2330;48.158;11.816;2023-04-01T13:33:17;8.30;98.50
4635;DHT22;2330;48.158;11.816;2023-04-01T13:36:08;8.30;98.50
4635;DHT22;2330;48.158;11.816;2023-04-01T13:38:56;8.30;98.50
4635;DHT22;2330;48.158;11.816;2023-04-01T13:41:41;8.30;98.50
4635;DHT22;2330;48.158;11.816;2023-04-01T13:44:37;8.40;98.50
4635;DHT22;2330;48.158;11.816;2023-04-01T13:50:45;8.40;98.50
4635;DHT22;2330;48.158;11.816;2023-04-01T14:00:19;8.40;98.50
4635;DHT22;2330;48.158;11.816;2023-04-01T14:20:22;8.60;98.50
4635;DHT22;2330;48.158;11.816;2023-04-01T14:31:47;9.00;98.50
4635;DHT22;2330;48.158;11.816;2023-04-01T14:45:33;8.70;98.50
4635;DHT22;2330;48.158;11.816;2023-04-01T14:48:25;8.80;98.50
4635;DHT22;2330;48.158;11.816;2023-04-01T14:51:02;8.80;98.50
4635;DHT22;2330;48.158;11.816;2023-04-01T14:53:33;8.90;98.50
4635;DHT22;2330;48.158;11.816;2023-04-01T14:56:02;9.00;98.50
4635;DHT22;2330;48.158;11.816;2023-04-01T14:58:45;9.00;98.50
4635;DHT22;2330;48.158;11.816;2023-04-01T15:02:17;9.00;98.50
4635;DHT22;2330;48.158;11.816;2023-04-01T15:04:56;9.00;98.50
4635;DHT22;2330;48.158;11.816;2023-04-01T15:10:40;9.00;98.50
4635;DHT22;2330;48.158;11.816;2023-04-01T15:16:18;9.00;98.50
4635;DHT22;2330;48.158;11.816;2023-04-01T15:19:05;9.10;98.50
4635;DHT22;2330;48.158;11.816;2023-04-01T15:24:26;9.20;98.50
4635;DHT22;2330;48.158;11.816;2023-04-01T15:41:16;9.00;98.50
4635;DHT22;2330;48.158;11.816;2023-04-01T15:43:48;8.90;98.50
4635;DHT22;2330;48.158;11.816;2023-04-01T15:46:42;8.90;98.50
4635;DHT22;2330;48.158;11.816;2023-04-01T15:57:41;9.10;98.50
4635;DHT22;2330;48.158;11.816;2023-04-01T16:01:03;9.20;98.50
4635;DHT22;2330;48.158;11.816;2023-04-01T16:03:51;9.20;98.50
4635;DHT22;2330;48.158;11.816;2023-04-01T16:09:58;9.20;98.50
4635;DHT22;2330;48.158;11.816;2023-04-01T16:13:11;9.20;98.50
4635;DHT22;2330;48.158;11.816;2023-04-01T16:21:02;9.30;98.50
4635;DHT22;2330;48.158;11.816;2023-04-01T16:23:59;9.30;98.50
4635;DHT22;2330;48.158;11.816;2023-04-01T16:26:37;9.40;98.50
4635;DHT22;2330;48.158;11.816;2023-04-01T16:31:49;9.30;98.50
4635;DHT22;2330;48.158;11.816;2023-04-01T16:34:30;9.30;98.50
4635;DHT22;2330;48.158;11.816;2023-04-01T16:37:12;9.30;98.50
4635;DHT22;2330;48.158;11.816;2023-04-01T16:49:00;9.40;98.50
4635;DHT22;2330;48.158;11.816;2023-04-01T16:54:35;9.40;98.50
4635;DHT22;2330;48.158;11.816;2023-04-01T16:58:07;9.40;98.50
4635;DHT22;2330;48.158;11.816;2023-04-01T17:00:30;9.30;98.50
4635;DHT22;2330;48.158;11.816;2023-04-01T17:05:57;9.20;98.50
4635;DHT22;2330;48.158;11.816;2023-04-01T17:11:24;9.10;98.50
4635;DHT22;2330;48.158;11.816;2023-04-01T17:22:49;8.80;98.50
4635;DHT22;2330;48.158;11.816;2023-04-01T17:33:18;8.70;98.50
4635;DHT22;2330;48.158;11.816;2023-04-01T17:41:53;8.80;98.50
4635;DHT22;2330;48.158;11.816;2023-04-01T17:44:38;8.80;98.50
4635;DHT22;2330;48.158;11.816;2023-04-01T17:47:24;8.80;98.50
4635;DHT22;2330;48.158;11.816;2023-04-01T17:50:18;8.80;98.50
4635;DHT22;2330;48.158;11.816;2023-04-01T17:55:37;8.70;98.50
4635;DHT22;2330;48.158;11.816;2023-04-01T17:58:19;8.70;98.50
4635;DHT22;2330;48.158;11.816;2023-04-01T18:00:50;8.70;98.50
4635;DHT22;2330;48.158;11.816;2023-04-01T18:03:54;8.60;98.50
4635;DHT22;2330;48.158;11.816;2023-04-01T18:09:08;8.70;98.50
4635;DHT22;2330;48.158;11.816;2023-04-01T18:11:42;8.70;98.50
4635;DHT22;2330;48.158;11.816;2023-04-01T18:22:41;8.80;98.50
4635;DHT22;2330;48.158;11.816;2023-04-01T18:25:26;8.80;98.50
4635;DHT22;2330;48.158;11.816;2023-04-01T18:28:16;8.70;98.50
4635;DHT22;2330;48.158;11.816;2023-04-01T18:30:55;8.70;98.50
4635;DHT22;2330;48.158;11.816;2023-04-01T18:33:41;8.80;98.50
4635;DHT22;2330;48.158;11.816;2023-04-01T18:39:16;8.70;98.50
4635;DHT22;2330;48.158;11.816;2023-04-01T18:44:56;8.70;98.50
4635;DHT22;2330;48.158;11.816;2023-04-01T18:50:47;8.50;98.50
4635;DHT22;2330;48.158;11.816;2023-04-01T18:53:41;8.50;98.50
4635;DHT22;2330;48.158;11.816;2023-04-01T18:56:12;8.40;98.50
4635;DHT22;2330;48.158;11.816;2023-04-01T18:59:01;8.40;98.50
4635;DHT22;2330;48.158;11.816;2023-04-01T19:01:52;8.40;98.50
4635;DHT22;2330;48.158;11.816;2023-04-01T19:04:33;8.40;98.50
4635;DHT22;2330;48.158;11.816;2023-04-01T19:07:47;8.30;98.50
4635;DHT22;2330;48.158;11.816;2023-04-01T19:10:22;8.30;98.50
4635;DHT22;2330;48.158;11.816;2023-04-01T19:13:02;8.40;98.50
4635;DHT22;2330;48.158;11.816;2023-04-01T19:15:49;8.40;98.50
4635;DHT22;2330;48.158;11.816;2023-04-01T19:18:40;8.30;98.50
4635;DHT22;2330;48.158;11.816;2023-04-01T19:21:14;8.20;98.50
4635;DHT22;2330;48.158;11.816;2023-04-01T19:39:06;8.20;98.50
4635;DHT22;2330;48.158;11.816;2023-04-01T19:42:15;8.20;98.50
4635;DHT22;2330;48.158;11.816;2023-04-01T19:45:08;8.20;98.50
4635;DHT22;2330;48.158;11.816;2023-04-01T19:51:16;8.20;98.50
4635;DHT22;2330;48.158;11.816;2023-04-01T19:56:19;8.20;98.50
4635;DHT22;2330;48.158;11.816;2023-04-01T19:58:50;8.20;98.50
4635;DHT22;2330;48.158;11.816;2023-04-01T20:04:43;8.10;98.50
4635;DHT22;2330;48.158;11.816;2023-04-01T20:15:36;8.10;98.50
4635;DHT22;2330;48.158;11.816;2023-04-01T20:21:00;8.00;98.50
4635;DHT22;2330;48.158;11.816;2023-04-01T20:23:50;8.00;98.50
4635;DHT22;2330;48.158;11.816;2023-04-01T20:26:29;8.00;98.50
4635;DHT22;2330;48.158;11.816;2023-04-01T20:37:37;7.90;98.50
4635;DHT22;2330;48.158;11.816;2023-04-01T20:53:58;7.80;98.50
4635;DHT22;2330;48.158;11.816;2023-04-01T20:56:36;7.80;98.50
4635;DHT22;2330;48.158;11.816;2023-04-01T21:07:47;7.80;98.50
4635;DHT22;2330;48.158;11.816;2023-04-01T21:10:40;7.80;98.50
4635;DHT22;2330;48.158;11.816;2023-04-01T21:18:42;7.70;98.50
4635;DHT22;2330;48.158;11.816;2023-04-01T21:24:30;7.70;98.50
4635;DHT22;2330;48.158;11.816;2023-04-01T21:40:40;7.60;98.50
4635;DHT22;2330;48.158;11.816;2023-04-01T21:43:44;7.60;98.50
4635;DHT22;2330;48.158;11.816;2023-04-01T22:00:50;7.70;98.50
4635;DHT22;2330;48.158;11.816;2023-04-01T22:03:57;7.80;98.50
4635;DHT22;2330;48.158;11.816;2023-04-01T22:06:42;7.80;98.50
4635;DHT22;2330;48.158;11.816;2023-04-01T22:14:27;7.80;98.50
4635;DHT22;2330;48.158;11.816;2023-04-01T22:17:06;7.80;98.50
4635;DHT22;2330;48.158;11.816;2023-04-01T22:22:17;7.80;98.50
4635;DHT22;2330;48.158;11.816;2023-04-01T22:28:03;7.80;98.50
4635;DHT22;2330;48.158;11.816;2023-04-01T22:30:50;7.80;98.50
4635;DHT22;2330;48.158;11.816;2023-04-01T22:33:43;7.80;98.50
4635;DHT22;2330;48.158;11.816;2023-04-01T22:36:17;7.80;98.50
4635;DHT22;2330;48.158;11.816;2023-04-01T22:39:13;7.80;98.50
4635;DHT22;2330;48.158;11.816;2023-04-01T22:44:50;7.80;98.50
4635;DHT22;2330;48.158;11.816;2023-04-01T22:50:15;7.80;98.50
4635;DHT22;2330;48.158;11.816;2023-04-01T22:52:53;7.80;98.50
4635;DHT22;2330;48.158;11.816;2023-04-01T22:55:29;7.80;98.50
4635;DHT22;2330;48.158;11.816;2023-04-01T22:58:10;7.80;98.50
4635;DHT22;2330;48.158;11.816;2023-04-01T23:00:47;7.90;98.50
4635;DHT22;2330;48.158;11.816;2023-04-01T23:03:19;7.90;98.50
4635;DHT22;2330;48.158;11.816;2023-04-01T23:05:54;7.90;98.50
4635;DHT22;2330;48.158;11.816;2023-04-01T23:16:57;8.00;98.50
4635;DHT22;2330;48.158;11.816;2023-04-01T23:22:37;7.90;98.50
4635;DHT22;2330;48.158;11.816;2023-04-01T23:25:23;7.80;98.50
4635;DHT22;2330;48.158;11.816;2023-04-01T23:28:17;7.90;98.50
4635;DHT22;2330;48.158;11.816;2023-04-01T23:30:47;7.80;98.50
4635;DHT22;2330;48.158;11.816;2023-04-01T23:36:22;7.80;98.50
4635;DHT22;2330;48.158;11.816;2023-04-01T23:38:50;7.80;98.50
4635;DHT22;2330;48.158;11.816;2023-04-01T23:41:28;7.80;98.50
4635;DHT22;2330;48.158;11.816;2023-04-01T23:44:04;7.80;98.50
4635;DHT22;2330;48.158;11.816;2023-04-01T23:46:33;7.80;98.50
4635;DHT22;2330;48.158;11.816;2023-04-01T23:49:02;7.70;98.50
4635;DHT22;2330;48.158;11.816;2023-04-01T23:51:38;7.70;98.50
4635;DHT22;2330;48.158;11.816;2023-04-01T23:54:22;7.70;98.50
4635;DHT22;2330;48.158;11.816;2023-04-01T23:56:55;7.70;98.50
4635;DHT22;2330;48.158;11.816;2023-04-01T23:59:34;7.80;98.50
